TimePST,TemperatureF,Dew PointF,Humidity,Sea Level PressureIn,VisibilityMPH,Wind Direction,Wind SpeedMPH,Gust SpeedMPH,PrecipitationIn,Events,Conditions,WindDirDegrees,DateUTC
12:53 AM,34.0,27.0,75,29.84,10.0,WSW,24.2,32.2,N/A,,Mostly Cloudy,250,2013-02-23 08:53:00
1:00 AM,33.8,26.6,75,29.78,10.0,WSW,20.7,28.8,N/A,,Scattered Clouds,250,2013-02-23 09:00:00
1:53 AM,32.0,25.0,75,29.86,10.0,WSW,17.3,27.6,N/A,,Clear,240,2013-02-23 09:53:00
2:53 AM,30.9,24.1,76,29.87,10.0,WSW,20.7,29.9,N/A,,Clear,240,2013-02-23 10:53:00
4:53 AM,28.9,24.1,82,29.91,10.0,WSW,13.8,-,N/A,,Clear,240,2013-02-23 12:53:00
5:53 AM,30.0,24.1,79,29.93,10.0,WSW,17.3,26.5,N/A,,Mostly Cloudy,240,2013-02-23 13:53:00
6:53 AM,30.0,23.0,75,29.95,10.0,WSW,16.1,24.2,N/A,,Mostly Cloudy,250,2013-02-23 14:53:00
7:53 AM,30.0,24.1,79,29.98,10.0,WSW,13.8,21.9,N/A,,Scattered Clouds,250,2013-02-23 15:53:00
8:53 AM,33.1,25.0,72,30.01,10.0,WSW,15.0,21.9,N/A,,Partly Cloudy,250,2013-02-23 16:53:00
9:53 AM,34.0,26.1,73,30.03,10.0,WSW,18.4,25.3,N/A,,Clear,250,2013-02-23 17:53:00
10:53 AM,35.1,27.0,72,30.04,10.0,West,19.6,27.6,N/A,,Overcast,260,2013-02-23 18:53:00
11:53 AM,35.1,27.0,72,30.05,10.0,West,18.4,25.3,N/A,,Overcast,260,2013-02-23 19:53:00
12:53 PM,39.0,28.9,67,30.05,10.0,West,16.1,25.3,N/A,,Mostly Cloudy,260,2013-02-23 20:53:00
1:53 PM,37.0,28.0,70,30.07,10.0,West,15.0,-,N/A,,Overcast,260,2013-02-23 21:53:00
2:53 PM,37.0,28.9,73,30.09,9.0,West,13.8,20.7,0.00,,Overcast,260,2013-02-23 22:53:00
3:53 PM,37.9,30.0,73,30.11,10.0,West,6.9,-,0.02,,Overcast,260,2013-02-23 23:53:00
4:53 PM,36.0,27.0,70,30.14,10.0,West,6.9,-,N/A,,Mostly Cloudy,260,2013-02-24 00:53:00
5:53 PM,35.1,28.0,76,30.16,10.0,West,6.9,-,N/A,,Clear,270,2013-02-24 01:53:00
6:53 PM,35.1,28.0,76,30.19,10.0,West,9.2,-,N/A,,Overcast,260,2013-02-24 02:53:00
7:53 PM,34.0,28.0,79,30.22,10.0,West,10.4,-,N/A,,Clear,270,2013-02-24 03:53:00
8:53 PM,33.1,27.0,78,30.23,10.0,WSW,11.5,-,N/A,,Clear,250,2013-02-24 04:53:00
9:53 PM,33.1,26.1,75,30.26,10.0,West,9.2,-,N/A,,Clear,260,2013-02-24 05:53:00
10:53 PM,32.0,26.1,79,30.27,10.0,West,12.7,-,N/A,,Clear,260,2013-02-24 06:53:00
11:53 PM,30.9,25.0,79,30.28,10.0,West,13.8,-,N/A,,Clear,260,2013-02-24 07:53:00